Aeroporto :
LOGIN :

Iscrizione | Disclaimer

   EN    FR    IT 

 










Sommario :    VFR   VFR Marginale   IFR   IFR Intensivo   IFR Molto Intensivo
Visibilità : 
Base nubi : 
>= 8 km
>= 3000ft
5 / 8 km
1000 / 3000 ft
1500m / 5 km
500 / 1000 ft
800 / 1500m
200 / 500 ft
< 800m
< 200 ft
Simboli :   Temporali  Nebbia  Neve Forte  Precipitazioni Forti  Vento > 20 kt
SIGMETs :   Varie  Temporali  Ghiacco  Turbolenza  Onda orograficha  Ceneri Vulcaniche






- Altitudine del aeroporto : 197 ft
- Codice IATA : XOG


LFMO - Orange

ULTIMO METAR :
  • 170930Z AUTO 34008KT 300V010 CAVOK 07/03 Q1006 NOSIG

METARs OBSOLETI :
  • 170900Z AUTO 33009KT 290V010 9999 FEW016 OVC086 06/04 Q1006 NOSIG
  • 170830Z AUTO 30007KT 270V330 CAVOK 03/03 Q1006 NOSIG
  • 170800Z AUTO 28005KT 240V310 CAVOK 02/02 Q1006 NOSIG
  • 170730Z AUTO 28007KT 6000 NSC 02/02 Q1006 NOSIG
  • 170700Z AUTO 29004KT 250V330 CAVOK 01/01 Q1006 TEMPO 0500 FG VV///

TAF TAF LFMO
Valido dal 17 a 09 ore il 18 a 09 ore UTC


170800Z 1709/1809 32013KT CAVOK



MetMap, La meteo Aeronautica in un colpo d'occhio ! - Copyright ORBIFLY Dicembre 2007 - Disclaimer

ORBIFLY MET'MAP TEAM :

Programmazione e sviluppo : Alexandra Zaïnal
Concezione e sviluppo : Baudouin d'Aumeries
Co-Programmazione e sviluppo : Marc-Olivier Méhu
Supporto tecnico e logistico : Manuel Goepfert
Aiuto per la traduzione : Arnaldo La Scala

Contatto : metmap@orbifly.com




FONTI E CREDITI :

   NOAA